createdAt,value
2022-10-31T00:01:21.760Z,100258.66
2022-10-31T00:03:48.843Z,100258.25
2022-10-31T00:06:16.658Z,100255.69
2022-10-31T00:08:43.629Z,100262.97
2022-10-31T00:11:11.644Z,100259.88
2022-10-31T00:13:39.011Z,100265.59
2022-10-31T00:16:13.434Z,100258.94
2022-10-31T00:18:40.452Z,100262.63
2022-10-31T00:21:07.475Z,100259.22
2022-10-31T00:23:34.476Z,100256.78
2022-10-31T00:26:05.367Z,100256.25
2022-10-31T00:28:32.475Z,100249.41
2022-10-31T00:31:04.643Z,100255.66
2022-10-31T00:33:34.526Z,100253.97
2022-10-31T00:36:01.845Z,100259.41
2022-10-31T00:38:29.208Z,100258.53
2022-10-31T00:40:56.208Z,100262.84
2022-10-31T00:43:23.297Z,100276.09
2022-10-31T00:45:50.514Z,100281.53
2022-10-31T00:48:17.510Z,100285.25
2022-10-31T00:50:44.549Z,100280.13
2022-10-31T00:53:11.825Z,100280.72
2022-10-31T00:55:38.860Z,100277.47
2022-10-31T00:58:05.985Z,100273.00
2022-10-31T01:00:33.185Z,100273.88
2022-10-31T01:03:00.320Z,100269.47
2022-10-31T01:05:27.798Z,100274.03
2022-10-31T01:07:54.856Z,100271.47
2022-10-31T01:10:21.963Z,100269.03
2022-10-31T01:12:50.526Z,100266.63
2022-10-31T01:15:20.856Z,100268.78
2022-10-31T01:17:48.929Z,100272.63
2022-10-31T01:20:17.134Z,100267.22
2022-10-31T01:22:44.159Z,100284.50
2022-10-31T01:25:11.447Z,100283.09
2022-10-31T01:27:38.498Z,100277.13
2022-10-31T01:30:08.340Z,100271.09
2022-10-31T01:32:35.343Z,100272.25
2022-10-31T01:35:02.350Z,100272.56
2022-10-31T01:37:29.410Z,100275.56
2022-10-31T01:39:56.401Z,100272.84
2022-10-31T01:42:24.211Z,100283.56
2022-10-31T01:45:01.076Z,100279.13
2022-10-31T01:47:46.022Z,100276.56
2022-10-31T01:50:31.992Z,100277.56
2022-10-31T01:53:01.410Z,100274.00
2022-10-31T01:55:33.414Z,100279.13
2022-10-31T01:58:09.993Z,100289.41
2022-10-31T02:00:38.323Z,100287.56
2022-10-31T02:03:05.527Z,100281.88
2022-10-31T02:05:33.551Z,100282.28
2022-10-31T02:08:22.514Z,100274.16
2022-10-31T02:10:50.610Z,100275.31
2022-10-31T02:13:18.207Z,100268.88
2022-10-31T02:15:53.071Z,100274.16
2022-10-31T02:18:21.179Z,100277.75
2022-10-31T02:21:00.493Z,100268.03
2022-10-31T02:23:33.476Z,100278.72
2022-10-31T02:26:34.850Z,100277.00
2022-10-31T02:29:29.416Z,100265.31
2022-10-31T02:32:30.067Z,100271.72
2022-10-31T02:35:22.229Z,100264.59
2022-10-31T02:38:12.384Z,100257.31
2022-10-31T02:40:57.798Z,100259.44
2022-10-31T02:44:02.869Z,100267.91
2022-10-31T02:46:48.609Z,100258.19
2022-10-31T02:49:49.258Z,100253.75
2022-10-31T02:52:24.604Z,100256.91
2022-10-31T02:54:52.182Z,100252.78
2022-10-31T02:57:34.197Z,100241.94
2022-10-31T03:00:04.821Z,100242.06
2022-10-31T03:02:40.994Z,100242.34
2022-10-31T03:05:17.206Z,100243.34
2022-10-31T03:08:20.685Z,100245.94
2022-10-31T03:10:58.752Z,100253.19
2022-10-31T03:13:37.514Z,100254.34
2022-10-31T03:16:24.219Z,100256.91
2022-10-31T03:18:57.950Z,100246.63
2022-10-31T03:21:31.463Z,100249.94
2022-10-31T03:24:02.042Z,100247.06
2022-10-31T03:26:30.607Z,100245.94
2022-10-31T03:29:03.186Z,100244.91
2022-10-31T03:31:59.297Z,100249.34
2022-10-31T03:34:29.124Z,100248.91
2022-10-31T03:37:01.824Z,100254.06
2022-10-31T03:39:30.053Z,100255.19
2022-10-31T03:42:05.986Z,100253.19
2022-10-31T03:44:35.463Z,100245.19
2022-10-31T03:47:04.852Z,100251.63
2022-10-31T03:49:33.653Z,100242.94
2022-10-31T03:52:13.661Z,100240.78
2022-10-31T03:54:46.510Z,100238.06
2022-10-31T03:57:31.290Z,100245.06
2022-10-31T04:00:06.706Z,100243.78
2022-10-31T04:02:59.591Z,100238.22
2022-10-31T04:05:30.338Z,100252.63
2022-10-31T04:08:01.916Z,100247.78
2022-10-31T04:10:32.938Z,100249.06
2022-10-31T04:13:14.473Z,100248.78
2022-10-31T04:15:48.813Z,100246.91
2022-10-31T04:18:17.532Z,100239.63
2022-10-31T04:20:45.006Z,100241.34
2022-10-31T04:23:26.676Z,100236.06
2022-10-31T04:25:54.390Z,100243.91
2022-10-31T04:28:21.427Z,100247.34
2022-10-31T04:30:48.483Z,100242.63
2022-10-31T04:33:15.530Z,100242.91
2022-10-31T04:35:44.061Z,100242.06
2022-10-31T04:38:11.879Z,100239.34
2022-10-31T04:40:40.117Z,100243.03
2022-10-31T04:43:32.987Z,100239.63
2022-10-31T04:46:01.260Z,100239.78
2022-10-31T04:48:29.105Z,100242.63
2022-10-31T04:51:03.114Z,100242.63
2022-10-31T04:53:30.344Z,100238.91
2022-10-31T04:56:35.616Z,100238.91
2022-10-31T04:59:09.745Z,100229.06
2022-10-31T05:01:55.172Z,100228.94
2022-10-31T05:04:37.534Z,100231.78
2022-10-31T05:07:04.487Z,100226.34
2022-10-31T05:09:31.653Z,100239.78
2022-10-31T05:11:59.048Z,100231.50
2022-10-31T05:14:47.646Z,100235.78
2022-10-31T05:17:51.579Z,100233.94
2022-10-31T05:20:37.142Z,100235.50
2022-10-31T05:23:30.263Z,100226.34
2022-10-31T05:25:57.270Z,100227.06
2022-10-31T05:28:24.356Z,100222.63
2022-10-31T05:30:51.408Z,100224.38
2022-10-31T05:33:18.406Z,100219.63
2022-10-31T05:35:45.339Z,100215.34
2022-10-31T05:38:34.251Z,100218.06
2022-10-31T05:41:10.503Z,100215.81
2022-10-31T05:43:39.270Z,100216.78
2022-10-31T05:46:07.420Z,100216.94
2022-10-31T05:48:52.831Z,100225.25
2022-10-31T05:51:38.122Z,100224.38
2022-10-31T05:54:05.309Z,100219.97
2022-10-31T05:56:32.358Z,100217.25
2022-10-31T05:58:59.442Z,100217.53
2022-10-31T06:01:27.628Z,100231.09
2022-10-31T06:03:54.829Z,100225.66
2022-10-31T06:06:23.990Z,100222.66
2022-10-31T06:08:51.058Z,100229.66
2022-10-31T06:11:21.281Z,100236.66
2022-10-31T06:14:03.217Z,100236.50
2022-10-31T06:16:36.596Z,100229.25
2022-10-31T06:19:23.958Z,100220.50
2022-10-31T06:21:51.608Z,100227.53
2022-10-31T06:24:18.618Z,100224.09
2022-10-31T06:26:54.363Z,100228.97
2022-10-31T06:29:21.954Z,100235.22
2022-10-31T06:32:11.444Z,100232.66
2022-10-31T06:34:42.742Z,100239.81
2022-10-31T06:37:13.807Z,100239.22
2022-10-31T06:39:45.113Z,100244.63
2022-10-31T06:42:16.743Z,100242.22
2022-10-31T06:44:44.357Z,100244.50
2022-10-31T06:47:26.317Z,100243.91
2022-10-31T06:50:05.022Z,100245.06
2022-10-31T06:52:32.030Z,100244.19
2022-10-31T06:54:59.021Z,100244.47
2022-10-31T06:57:26.067Z,100250.47
2022-10-31T06:59:53.027Z,100254.00
2022-10-31T07:02:25.987Z,100248.16
2022-10-31T07:04:53.203Z,100253.56
2022-10-31T07:07:20.303Z,100246.84
2022-10-31T07:09:47.346Z,100249.72
2022-10-31T07:12:17.021Z,100237.72
2022-10-31T07:14:52.431Z,100241.41
2022-10-31T07:17:19.766Z,100245.38
2022-10-31T07:19:46.852Z,100258.91
2022-10-31T07:22:17.076Z,100257.88
2022-10-31T07:24:45.087Z,100263.56
2022-10-31T07:27:47.278Z,100269.06
2022-10-31T07:30:15.422Z,100264.81
2022-10-31T07:32:44.978Z,100267.88
2022-10-31T07:35:20.043Z,100265.09
2022-10-31T07:37:49.504Z,100268.75
2022-10-31T07:40:17.743Z,100263.97
2022-10-31T07:42:48.463Z,100266.63
2022-10-31T07:45:35.371Z,100271.84
2022-10-31T07:48:21.166Z,100269.19
2022-10-31T07:51:06.609Z,100265.56
2022-10-31T07:53:59.751Z,100260.19
2022-10-31T07:56:30.298Z,100264.59
2022-10-31T07:58:58.351Z,100261.44
2022-10-31T08:01:25.362Z,100260.72
2022-10-31T08:04:12.224Z,100252.63
2022-10-31T08:06:57.806Z,100253.53
2022-10-31T08:09:32.481Z,100242.00
2022-10-31T08:12:03.942Z,100238.69
2022-10-31T08:14:31.966Z,100239.91
2022-10-31T08:16:59.013Z,100243.72
2022-10-31T08:19:33.832Z,100239.59
2022-10-31T08:22:01.698Z,100238.56
2022-10-31T08:24:29.263Z,100242.88
2022-10-31T08:26:58.324Z,100251.94
2022-10-31T08:29:25.604Z,100248.03
2022-10-31T08:31:52.763Z,100241.94
2022-10-31T08:34:42.838Z,100245.16
2022-10-31T08:37:36.036Z,100242.44
2022-10-31T08:40:05.393Z,100243.09
2022-10-31T08:42:35.222Z,100242.44
2022-10-31T08:45:02.939Z,100237.63
2022-10-31T08:47:31.795Z,100233.19
2022-10-31T08:49:59.098Z,100228.56
2022-10-31T08:52:51.252Z,100227.00
2022-10-31T08:55:13.658Z,100221.16
2022-10-31T08:58:05.985Z,100221.78
2022-10-31T09:00:46.148Z,100221.25
2022-10-31T09:03:23.270Z,100214.22
2022-10-31T09:05:55.047Z,100220.44
2022-10-31T09:08:22.186Z,100207.03
2022-10-31T09:10:49.390Z,100203.22
2022-10-31T09:13:24.169Z,100202.19
2022-10-31T09:16:22.229Z,100204.53
2022-10-31T09:18:49.287Z,100203.38
2022-10-31T09:21:17.491Z,100202.38
2022-10-31T09:23:44.506Z,100195.59
2022-10-31T09:26:11.599Z,100188.00
2022-10-31T09:28:44.348Z,100186.63
2022-10-31T09:31:13.643Z,100182.28
2022-10-31T09:34:06.469Z,100181.72
2022-10-31T09:36:36.962Z,100170.72
2022-10-31T09:39:05.361Z,100173.75
2022-10-31T09:41:57.498Z,100160.44
2022-10-31T09:44:50.344Z,100164.72
2022-10-31T09:47:48.134Z,100157.13
2022-10-31T09:50:37.843Z,100158.19
2022-10-31T09:53:33.031Z,100156.66
2022-10-31T09:56:01.041Z,100153.81
2022-10-31T09:58:32.119Z,100148.19
2022-10-31T10:01:04.409Z,100151.41
2022-10-31T10:03:45.061Z,100163.28
2022-10-31T10:06:39.154Z,100152.06
2022-10-31T10:09:32.160Z,100149.72
2022-10-31T10:12:48.919Z,100147.19
2022-10-31T10:15:31.147Z,100145.91
2022-10-31T10:18:10.310Z,100146.53
2022-10-31T10:20:57.796Z,100135.66
2022-10-31T10:24:04.758Z,100130.59
2022-10-31T10:26:44.805Z,100131.03
2022-10-31T10:29:56.233Z,100122.91
2022-10-31T10:32:26.082Z,100125.91
2022-10-31T10:35:02.970Z,100129.69
2022-10-31T10:37:38.647Z,100127.94
2022-10-31T10:40:22.563Z,100117.94
2022-10-31T10:43:21.732Z,100111.94
2022-10-31T10:46:12.179Z,100105.13
2022-10-31T10:48:52.172Z,100112.34
2022-10-31T10:51:46.286Z,100106.78
2022-10-31T10:54:27.742Z,100106.94
2022-10-31T10:57:06.792Z,100103.06
2022-10-31T10:59:35.880Z,100101.78
2022-10-31T11:02:04.550Z,100092.84
2022-10-31T11:04:34.582Z,100091.09
2022-10-31T11:07:05.856Z,100090.84
2022-10-31T11:09:34.613Z,100082.69
2022-10-31T11:12:09.670Z,100079.22
2022-10-31T11:14:45.506Z,100073.41
2022-10-31T11:17:31.496Z,100071.28
2022-10-31T11:20:18.094Z,100063.53
2022-10-31T11:22:48.497Z,100064.09
2022-10-31T11:25:26.411Z,100057.44
2022-10-31T11:28:01.083Z,100064.41
2022-10-31T11:30:29.045Z,100059.50
2022-10-31T11:32:57.302Z,100059.06
2022-10-31T11:35:26.200Z,100050.47
2022-10-31T11:37:57.350Z,100039.78
2022-10-31T11:40:26.870Z,100036.78
2022-10-31T11:42:57.564Z,100039.34
2022-10-31T11:45:24.554Z,100037.38
2022-10-31T11:47:59.180Z,100034.09
2022-10-31T11:50:33.718Z,100031.00
2022-10-31T11:53:02.393Z,100039.94
2022-10-31T11:55:38.869Z,100030.88
2022-10-31T11:58:20.313Z,100031.72
2022-10-31T12:00:51.547Z,100030.56
2022-10-31T12:03:24.509Z,100030.69
2022-10-31T12:06:00.918Z,100028.22
2022-10-31T12:08:37.864Z,100019.81
2022-10-31T12:11:33.825Z,100020.19
2022-10-31T12:14:19.512Z,100017.53
2022-10-31T12:16:55.409Z,100013.47
2022-10-31T12:19:36.895Z,100006.38
2022-10-31T12:22:22.398Z,99997.38
2022-10-31T12:28:15.268Z,99996.75
2022-10-31T12:31:06.465Z,99992.19
2022-10-31T12:34:04.474Z,99991.72
2022-10-31T12:36:43.667Z,99977.75
2022-10-31T12:39:17.437Z,99984.28
2022-10-31T12:41:55.740Z,99976.44
2022-10-31T12:44:50.367Z,99971.50
2022-10-31T12:47:38.797Z,99970.19
2022-10-31T12:50:32.181Z,99970.19
2022-10-31T12:53:27.047Z,99968.47
2022-10-31T12:55:56.932Z,99958.25
2022-10-31T12:58:32.488Z,99965.94
2022-10-31T13:01:16.937Z,99961.50
2022-10-31T13:03:58.759Z,99951.63
2022-10-31T13:06:30.738Z,99948.03
2022-10-31T13:09:00.745Z,99947.28
2022-10-31T13:11:34.914Z,99936.56
2022-10-31T13:14:09.041Z,99945.03
2022-10-31T13:16:41.046Z,99934.19
2022-10-31T13:19:17.559Z,99932.59
2022-10-31T13:22:08.717Z,99926.47
2022-10-31T13:24:43.824Z,99928.50
2022-10-31T13:27:38.876Z,99919.94
2022-10-31T13:30:21.133Z,99919.81
2022-10-31T13:33:01.179Z,99909.31
2022-10-31T13:35:42.156Z,99914.41
2022-10-31T13:38:18.467Z,99912.06
2022-10-31T13:41:44.054Z,99904.25
2022-10-31T13:44:16.597Z,99912.25
2022-10-31T13:46:44.761Z,99904.53
2022-10-31T13:49:32.343Z,99897.78
2022-10-31T13:52:11.463Z,99894.59
2022-10-31T13:54:48.124Z,99887.63
2022-10-31T13:57:21.108Z,99895.78
2022-10-31T14:00:00.669Z,99891.44
2022-10-31T14:02:31.231Z,99887.81
2022-10-31T14:05:07.726Z,99881.28
2022-10-31T14:07:44.606Z,99880.47
2022-10-31T14:10:32.070Z,99870.47
2022-10-31T14:13:23.865Z,99873.66
2022-10-31T14:16:26.834Z,99871.19
2022-10-31T14:18:59.981Z,99873.38
2022-10-31T14:21:37.705Z,99866.63
2022-10-31T14:24:23.382Z,99853.25
2022-10-31T14:26:57.909Z,99854.78
2022-10-31T14:29:26.667Z,99859.59
2022-10-31T14:32:22.337Z,99851.13
2022-10-31T14:34:52.443Z,99851.50
2022-10-31T14:37:59.455Z,99841.81
2022-10-31T14:40:45.323Z,99840.22
2022-10-31T14:43:27.103Z,99837.59
2022-10-31T14:46:21.506Z,99832.06
2022-10-31T14:49:10.158Z,99833.47
2022-10-31T14:51:41.284Z,99835.44
2022-10-31T14:54:15.462Z,99825.16
2022-10-31T14:56:56.108Z,99827.00
2022-10-31T14:59:29.385Z,99823.81
2022-10-31T15:02:15.926Z,99826.50
2022-10-31T15:04:45.355Z,99825.16
2022-10-31T15:07:23.292Z,99818.41
2022-10-31T15:10:03.657Z,99830.16
2022-10-31T15:12:33.075Z,99825.53
2022-10-31T15:15:18.629Z,99818.22
2022-10-31T15:17:49.492Z,99812.53
2022-10-31T15:20:25.360Z,99805.34
2022-10-31T15:22:54.333Z,99798.59
2022-10-31T15:25:24.679Z,99790.31
2022-10-31T15:27:53.492Z,99788.38
2022-10-31T15:30:28.810Z,99780.56
2022-10-31T15:32:58.774Z,99780.59
2022-10-31T15:35:31.219Z,99778.91
2022-10-31T15:37:59.850Z,99774.97
2022-10-31T15:40:27.936Z,99787.06
2022-10-31T15:43:00.313Z,99783.09
2022-10-31T15:45:29.321Z,99780.34
2022-10-31T15:48:16.200Z,99782.72
2022-10-31T15:50:50.980Z,99797.75
2022-10-31T15:53:22.417Z,99802.91
2022-10-31T15:55:56.640Z,99799.81
2022-10-31T15:58:25.302Z,99796.84
2022-10-31T16:01:04.693Z,99794.13
2022-10-31T16:03:34.528Z,99792.44
2022-10-31T16:06:05.163Z,99794.19
2022-10-31T16:08:33.740Z,99790.19
2022-10-31T16:11:12.824Z,99800.16
2022-10-31T16:14:02.492Z,99803.53
2022-10-31T16:16:36.285Z,99810.09
2022-10-31T16:19:06.413Z,99813.03
2022-10-31T16:21:37.334Z,99810.66
2022-10-31T16:24:26.943Z,99814.59
2022-10-31T16:26:58.412Z,99809.09
2022-10-31T16:29:42.613Z,99813.94
2022-10-31T16:32:30.957Z,99806.50
2022-10-31T16:35:03.074Z,99803.72
2022-10-31T16:37:30.023Z,99804.38
2022-10-31T16:39:57.098Z,99809.81
2022-10-31T16:42:24.116Z,99810.19
2022-10-31T16:44:51.291Z,99820.09
2022-10-31T16:47:19.193Z,99818.56
2022-10-31T16:49:49.800Z,99819.81
2022-10-31T16:52:18.037Z,99817.69
2022-10-31T16:54:45.131Z,99810.94
2022-10-31T16:57:16.862Z,99811.13
2022-10-31T16:59:47.289Z,99799.75
2022-10-31T17:02:17.005Z,99794.66
2022-10-31T17:04:44.232Z,99796.78
2022-10-31T17:07:11.343Z,99787.50
2022-10-31T17:09:38.416Z,99791.72
2022-10-31T17:12:07.704Z,99786.03
2022-10-31T17:14:35.208Z,99779.25
2022-10-31T17:17:03.307Z,99769.97
2022-10-31T17:19:30.296Z,99752.22
2022-10-31T17:21:57.371Z,99751.63
2022-10-31T17:24:24.358Z,99749.50
2022-10-31T17:26:51.315Z,99747.81
2022-10-31T17:29:18.324Z,99738.47
2022-10-31T17:31:45.392Z,99732.78
2022-10-31T17:34:12.364Z,99723.75
2022-10-31T17:36:39.305Z,99723.91
2022-10-31T17:39:06.306Z,99718.44
2022-10-31T17:41:33.285Z,99715.66
2022-10-31T17:44:00.347Z,99710.09
2022-10-31T17:46:27.683Z,99707.75
2022-10-31T17:48:54.695Z,99699.34
2022-10-31T17:51:21.776Z,99690.13
2022-10-31T17:53:48.775Z,99661.84
2022-10-31T17:56:15.784Z,99651.53
2022-10-31T17:58:42.941Z,99662.13
2022-10-31T18:01:12.582Z,99653.91
2022-10-31T18:03:40.103Z,99668.06
2022-10-31T18:06:07.746Z,99662.38
2022-10-31T18:08:36.383Z,99669.72
2022-10-31T18:11:13.031Z,99680.50
2022-10-31T18:13:40.614Z,99689.41
2022-10-31T18:16:12.881Z,99680.47
2022-10-31T18:18:40.818Z,99689.28
2022-10-31T18:21:08.829Z,99685.69
2022-10-31T18:23:35.876Z,99683.91
2022-10-31T18:26:02.977Z,99682.22
2022-10-31T18:28:30.133Z,99688.75
2022-10-31T18:31:00.280Z,99688.38
2022-10-31T18:33:27.829Z,99690.44
2022-10-31T18:35:55.370Z,99726.50
2022-10-31T18:38:22.819Z,99738.50
2022-10-31T18:40:51.365Z,99716.56
2022-10-31T18:43:18.348Z,99704.94
2022-10-31T18:45:48.597Z,99695.22
2022-10-31T18:48:17.375Z,99703.03
2022-10-31T18:50:44.656Z,99696.91
2022-10-31T18:53:11.649Z,99691.25
2022-10-31T18:55:43.834Z,99679.56
2022-10-31T18:58:14.463Z,99663.50
2022-10-31T19:00:41.474Z,99658.00
2022-10-31T19:03:08.672Z,99670.41
2022-10-31T19:05:35.639Z,99669.78
2022-10-31T19:08:02.679Z,99665.38
2022-10-31T19:10:29.912Z,99665.50
2022-10-31T19:12:56.964Z,99663.16
2022-10-31T19:15:23.963Z,99656.84
2022-10-31T19:17:50.907Z,99659.91
2022-10-31T19:20:18.015Z,99657.19
2022-10-31T19:22:44.977Z,99651.47
2022-10-31T19:25:12.043Z,99644.25
2022-10-31T19:27:39.470Z,99649.38
2022-10-31T19:30:07.376Z,99641.13
2022-10-31T19:32:34.434Z,99640.19
2022-10-31T19:35:01.450Z,99635.50
2022-10-31T19:37:28.841Z,99636.94
2022-10-31T19:39:55.831Z,99629.91
2022-10-31T19:42:22.785Z,99634.47
2022-10-31T19:44:50.755Z,99631.28
2022-10-31T19:47:17.738Z,99617.88
2022-10-31T19:49:44.679Z,99619.19
2022-10-31T19:52:11.666Z,99616.50
2022-10-31T19:54:38.610Z,99605.19
2022-10-31T19:57:05.633Z,99594.06
2022-10-31T19:59:38.159Z,99598.03
2022-10-31T20:02:06.427Z,99598.59
2022-10-31T20:04:33.395Z,99593.97
2022-10-31T20:07:00.356Z,99605.56
2022-10-31T20:09:27.338Z,99606.78
2022-10-31T20:11:54.277Z,99628.84
2022-10-31T20:14:21.250Z,99640.81
2022-10-31T20:16:48.215Z,99658.28
2022-10-31T20:19:15.242Z,99654.22
2022-10-31T20:21:42.391Z,99667.22
2022-10-31T20:24:11.167Z,99675.91
2022-10-31T20:26:39.747Z,99687.03
2022-10-31T20:29:07.379Z,99686.16
2022-10-31T20:31:36.192Z,99682.78
2022-10-31T20:34:03.844Z,99695.41
2022-10-31T20:36:31.312Z,99700.78
2022-10-31T20:38:58.785Z,99708.31
2022-10-31T20:41:26.434Z,99709.72
2022-10-31T20:43:53.566Z,99714.56
2022-10-31T20:46:24.233Z,99712.19
2022-10-31T20:48:52.282Z,99709.19
2022-10-31T20:51:22.542Z,99725.09
2022-10-31T20:53:51.451Z,99730.94
2022-10-31T20:56:20.594Z,99734.03
2022-10-31T20:58:48.386Z,99742.81
2022-10-31T21:01:18.766Z,99736.84
2022-10-31T21:03:46.708Z,99727.50
2022-10-31T21:06:15.016Z,99734.00
2022-10-31T21:08:42.647Z,99747.03
2022-10-31T21:11:12.595Z,99726.56
2022-10-31T21:13:41.515Z,99734.28
2022-10-31T21:16:11.533Z,99736.00
2022-10-31T21:18:42.638Z,99724.56
2022-10-31T21:21:12.500Z,99723.94
2022-10-31T21:23:40.539Z,99730.78
2022-10-31T21:26:11.360Z,99729.75
2022-10-31T21:28:38.468Z,99737.94
2022-10-31T21:31:08.083Z,99736.53
2022-10-31T21:33:35.782Z,99728.53
2022-10-31T21:36:03.012Z,99737.94
2022-10-31T21:38:30.330Z,99741.88
2022-10-31T21:41:12.216Z,99727.38
2022-10-31T21:43:39.916Z,99733.06
2022-10-31T21:46:15.438Z,99735.56
2022-10-31T21:48:43.421Z,99726.72
2022-10-31T21:51:14.539Z,99734.25
2022-10-31T21:53:41.758Z,99729.81
2022-10-31T21:56:08.730Z,99727.66
2022-10-31T21:58:38.503Z,99732.44
2022-10-31T22:01:06.040Z,99721.69
2022-10-31T22:03:37.486Z,99731.09
2022-10-31T22:06:06.190Z,99716.63
2022-10-31T22:08:33.545Z,99718.31
2022-10-31T22:11:12.421Z,99722.63
2022-10-31T22:13:40.411Z,99721.13
2022-10-31T22:16:10.423Z,99721.94
2022-10-31T22:18:38.371Z,99719.78
2022-10-31T22:21:08.644Z,99719.78
2022-10-31T22:23:36.087Z,99721.84
2022-10-31T22:26:07.974Z,99716.41
2022-10-31T22:28:35.681Z,99716.63
2022-10-31T22:31:06.940Z,99710.19
2022-10-31T22:33:34.611Z,99696.59
2022-10-31T22:36:05.998Z,99698.97
2022-10-31T22:38:34.446Z,99690.22
2022-10-31T22:41:02.418Z,99688.81
2022-10-31T22:43:29.385Z,99669.72
2022-10-31T22:45:58.536Z,99673.50
2022-10-31T22:48:27.682Z,99669.53
2022-10-31T22:50:54.679Z,99673.31
2022-10-31T22:53:22.654Z,99668.91
2022-10-31T22:55:50.080Z,99672.16
2022-10-31T22:58:17.024Z,99669.78
2022-10-31T23:00:44.057Z,99664.78
2022-10-31T23:03:11.108Z,99659.84
2022-10-31T23:05:38.072Z,99654.75
2022-10-31T23:08:05.325Z,99653.31
2022-10-31T23:10:33.298Z,99662.88
2022-10-31T23:13:00.559Z,99659.78
2022-10-31T23:15:28.247Z,99646.34
2022-10-31T23:17:56.848Z,99652.81
2022-10-31T23:20:23.857Z,99660.16
2022-10-31T23:22:50.819Z,99652.16
2022-10-31T23:25:17.789Z,99651.78
2022-10-31T23:27:44.727Z,99658.22
2022-10-31T23:30:11.749Z,99653.44
2022-10-31T23:32:38.750Z,99661.44
2022-10-31T23:35:08.884Z,99668.41
2022-10-31T23:37:38.178Z,99663.31
2022-10-31T23:40:06.957Z,99661.47
2022-10-31T23:42:34.117Z,99666.59
2022-10-31T23:45:01.077Z,99664.78
2022-10-31T23:47:28.068Z,99660.16
2022-10-31T23:49:55.039Z,99648.50
2022-10-31T23:52:22.186Z,99650.16
2022-10-31T23:54:49.155Z,99646.91
2022-10-31T23:57:16.702Z,99643.63
2022-10-31T23:59:44.107Z,99654.16
